sensor_id;sensor_type;location;lat;lon;timestamp;temperature;humidity
30379;DHT22;17168;49.164;9.060;2022-09-12T00:00:02;15.40;94.00
30379;DHT22;17168;49.164;9.060;2022-09-12T00:02:35;15.30;94.40
30379;DHT22;17168;49.164;9.060;2022-09-12T00:05:07;15.30;94.60
30379;DHT22;17168;49.164;9.060;2022-09-12T00:07:39;15.30;94.70
30379;DHT22;17168;49.164;9.060;2022-09-12T00:10:11;15.30;95.00
30379;DHT22;17168;49.164;9.060;2022-09-12T00:12:42;15.30;95.30
30379;DHT22;17168;49.164;9.060;2022-09-12T00:15:14;15.20;95.30
30379;DHT22;17168;49.164;9.060;2022-09-12T00:17:47;15.30;95.50
30379;DHT22;17168;49.164;9.060;2022-09-12T00:20:19;15.20;95.50
30379;DHT22;17168;49.164;9.060;2022-09-12T00:22:51;15.20;95.60
30379;DHT22;17168;49.164;9.060;2022-09-12T00:25:23;15.20;95.90
30379;DHT22;17168;49.164;9.060;2022-09-12T00:27:54;15.20;96.40
30379;DHT22;17168;49.164;9.060;2022-09-12T00:30:26;15.10;96.70
30379;DHT22;17168;49.164;9.060;2022-09-12T00:32:59;15.10;97.00
30379;DHT22;17168;49.164;9.060;2022-09-12T00:35:31;15.10;97.20
30379;DHT22;17168;49.164;9.060;2022-09-12T00:38:03;15.10;97.30
30379;DHT22;17168;49.164;9.060;2022-09-12T00:40:35;15.10;97.50
30379;DHT22;17168;49.164;9.060;2022-09-12T00:43:12;15.10;97.80
30379;DHT22;17168;49.164;9.060;2022-09-12T00:45:44;15.10;98.10
30379;DHT22;17168;49.164;9.060;2022-09-12T00:48:27;15.10;98.40
30379;DHT22;17168;49.164;9.060;2022-09-12T00:51:01;15.10;98.60
30379;DHT22;17168;49.164;9.060;2022-09-12T00:53:33;15.10;98.80
30379;DHT22;17168;49.164;9.060;2022-09-12T00:56:05;15.10;98.50
30379;DHT22;17168;49.164;9.060;2022-09-12T00:58:40;15.10;98.40
30379;DHT22;17168;49.164;9.060;2022-09-12T01:01:13;15.10;98.20
30379;DHT22;17168;49.164;9.060;2022-09-12T01:03:46;15.10;98.00
30379;DHT22;17168;49.164;9.060;2022-09-12T01:06:21;15.10;97.90
30379;DHT22;17168;49.164;9.060;2022-09-12T01:08:55;15.10;97.70
30379;DHT22;17168;49.164;9.060;2022-09-12T01:11:30;15.00;97.50
30379;DHT22;17168;49.164;9.060;2022-09-12T01:14:02;15.00;97.50
30379;DHT22;17168;49.164;9.060;2022-09-12T01:16:34;14.90;97.40
30379;DHT22;17168;49.164;9.060;2022-09-12T01:19:23;14.90;97.30
30379;DHT22;17168;49.164;9.060;2022-09-12T01:22:09;14.90;97.10
30379;DHT22;17168;49.164;9.060;2022-09-12T01:24:55;14.90;97.00
30379;DHT22;17168;49.164;9.060;2022-09-12T01:27:52;14.80;97.00
30379;DHT22;17168;49.164;9.060;2022-09-12T01:30:42;14.80;97.00
30379;DHT22;17168;49.164;9.060;2022-09-12T01:33:33;14.70;96.90
30379;DHT22;17168;49.164;9.060;2022-09-12T01:36:27;14.70;97.00
30379;DHT22;17168;49.164;9.060;2022-09-12T01:39:03;14.60;97.20
30379;DHT22;17168;49.164;9.060;2022-09-12T01:41:43;14.60;97.60
30379;DHT22;17168;49.164;9.060;2022-09-12T01:44:27;14.50;98.00
30379;DHT22;17168;49.164;9.060;2022-09-12T01:47:05;14.50;98.50
30379;DHT22;17168;49.164;9.060;2022-09-12T01:49:43;14.40;99.00
30379;DHT22;17168;49.164;9.060;2022-09-12T01:52:22;14.40;99.50
30379;DHT22;17168;49.164;9.060;2022-09-12T01:54:59;14.40;99.20
30379;DHT22;17168;49.164;9.060;2022-09-12T01:57:43;14.40;99.00
30379;DHT22;17168;49.164;9.060;2022-09-12T02:00:16;14.40;99.00
30379;DHT22;17168;49.164;9.060;2022-09-12T02:02:52;14.40;98.70
30379;DHT22;17168;49.164;9.060;2022-09-12T02:05:30;14.40;98.60
30379;DHT22;17168;49.164;9.060;2022-09-12T02:08:06;14.40;98.80
30379;DHT22;17168;49.164;9.060;2022-09-12T02:10:43;14.40;98.90
30379;DHT22;17168;49.164;9.060;2022-09-12T02:13:22;14.40;98.90
30379;DHT22;17168;49.164;9.060;2022-09-12T02:15:59;14.40;98.90
30379;DHT22;17168;49.164;9.060;2022-09-12T02:18:37;14.30;99.00
30379;DHT22;17168;49.164;9.060;2022-09-12T02:21:09;14.30;99.20
30379;DHT22;17168;49.164;9.060;2022-09-12T02:23:46;14.30;99.40
30379;DHT22;17168;49.164;9.060;2022-09-12T02:26:22;14.30;99.50
30379;DHT22;17168;49.164;9.060;2022-09-12T02:28:58;14.30;99.40
30379;DHT22;17168;49.164;9.060;2022-09-12T02:31:36;14.30;99.50
30379;DHT22;17168;49.164;9.060;2022-09-12T02:34:21;14.30;99.60
30379;DHT22;17168;49.164;9.060;2022-09-12T02:37:05;14.30;99.90
30379;DHT22;17168;49.164;9.060;2022-09-12T02:39:42;14.20;99.90
30379;DHT22;17168;49.164;9.060;2022-09-12T02:42:18;14.20;99.90
30379;DHT22;17168;49.164;9.060;2022-09-12T02:44:51;14.20;99.90
30379;DHT22;17168;49.164;9.060;2022-09-12T02:47:27;14.30;99.90
30379;DHT22;17168;49.164;9.060;2022-09-12T02:50:03;14.30;99.90
30379;DHT22;17168;49.164;9.060;2022-09-12T02:52:37;14.30;99.90
30379;DHT22;17168;49.164;9.060;2022-09-12T02:55:10;14.20;99.90
30379;DHT22;17168;49.164;9.060;2022-09-12T02:57:43;14.20;99.90
30379;DHT22;17168;49.164;9.060;2022-09-12T03:00:15;14.10;99.90
30379;DHT22;17168;49.164;9.060;2022-09-12T03:03:05;14.10;99.90
30379;DHT22;17168;49.164;9.060;2022-09-12T03:05:49;14.10;99.90
30379;DHT22;17168;49.164;9.060;2022-09-12T03:11:30;14.00;99.90
30379;DHT22;17168;49.164;9.060;2022-09-12T03:14:31;14.00;99.90
30379;DHT22;17168;49.164;9.060;2022-09-12T03:17:12;14.00;99.90
30379;DHT22;17168;49.164;9.060;2022-09-12T03:19:53;14.00;99.90
30379;DHT22;17168;49.164;9.060;2022-09-12T03:22:36;14.00;99.90
30379;DHT22;17168;49.164;9.060;2022-09-12T03:25:15;14.00;99.90
30379;DHT22;17168;49.164;9.060;2022-09-12T03:27:57;14.00;99.90
30379;DHT22;17168;49.164;9.060;2022-09-12T03:30:29;14.00;99.90
30379;DHT22;17168;49.164;9.060;2022-09-12T03:33:04;14.10;99.90
30379;DHT22;17168;49.164;9.060;2022-09-12T03:35:36;14.10;99.90
30379;DHT22;17168;49.164;9.060;2022-09-12T03:38:12;14.10;99.90
30379;DHT22;17168;49.164;9.060;2022-09-12T03:40:44;14.10;99.90
30379;DHT22;17168;49.164;9.060;2022-09-12T03:43:28;14.10;99.90
30379;DHT22;17168;49.164;9.060;2022-09-12T03:46:00;14.10;99.90
30379;DHT22;17168;49.164;9.060;2022-09-12T03:48:32;14.00;99.90
30379;DHT22;17168;49.164;9.060;2022-09-12T03:51:06;14.00;99.90
30379;DHT22;17168;49.164;9.060;2022-09-12T03:53:40;14.00;99.90
30379;DHT22;17168;49.164;9.060;2022-09-12T03:56:12;14.00;99.90
30379;DHT22;17168;49.164;9.060;2022-09-12T03:58:44;14.00;99.90
30379;DHT22;17168;49.164;9.060;2022-09-12T04:01:18;13.90;99.90
30379;DHT22;17168;49.164;9.060;2022-09-12T04:03:51;13.90;99.90
30379;DHT22;17168;49.164;9.060;2022-09-12T04:06:23;14.00;99.90
30379;DHT22;17168;49.164;9.060;2022-09-12T04:08:56;13.80;99.90
30379;DHT22;17168;49.164;9.060;2022-09-12T04:11:28;13.70;99.90
30379;DHT22;17168;49.164;9.060;2022-09-12T04:14:01;13.70;99.90
30379;DHT22;17168;49.164;9.060;2022-09-12T04:16:33;13.70;99.90
30379;DHT22;17168;49.164;9.060;2022-09-12T04:19:05;13.60;99.90
30379;DHT22;17168;49.164;9.060;2022-09-12T04:21:36;13.70;99.90
30379;DHT22;17168;49.164;9.060;2022-09-12T04:24:11;13.80;99.90
30379;DHT22;17168;49.164;9.060;2022-09-12T04:26:43;13.70;99.90
30379;DHT22;17168;49.164;9.060;2022-09-12T04:29:14;13.60;99.90
30379;DHT22;17168;49.164;9.060;2022-09-12T04:31:46;13.50;99.90
30379;DHT22;17168;49.164;9.060;2022-09-12T04:34:18;13.50;99.90
30379;DHT22;17168;49.164;9.060;2022-09-12T04:36:50;13.50;99.90
30379;DHT22;17168;49.164;9.060;2022-09-12T04:39:23;13.50;99.90
30379;DHT22;17168;49.164;9.060;2022-09-12T04:41:55;13.50;99.90
30379;DHT22;17168;49.164;9.060;2022-09-12T04:44:27;13.50;99.90
30379;DHT22;17168;49.164;9.060;2022-09-12T04:46:59;13.40;99.90
30379;DHT22;17168;49.164;9.060;2022-09-12T04:49:31;13.30;99.90
30379;DHT22;17168;49.164;9.060;2022-09-12T04:52:03;13.30;99.90
30379;DHT22;17168;49.164;9.060;2022-09-12T04:54:36;13.20;99.90
30379;DHT22;17168;49.164;9.060;2022-09-12T04:57:09;13.20;99.90
30379;DHT22;17168;49.164;9.060;2022-09-12T04:59:41;13.20;99.90
30379;DHT22;17168;49.164;9.060;2022-09-12T05:02:13;13.20;99.90
30379;DHT22;17168;49.164;9.060;2022-09-12T05:04:45;13.20;99.90
30379;DHT22;17168;49.164;9.060;2022-09-12T05:07:17;13.10;99.90
30379;DHT22;17168;49.164;9.060;2022-09-12T05:09:52;13.10;99.90
30379;DHT22;17168;49.164;9.060;2022-09-12T05:14:56;13.10;99.90
30379;DHT22;17168;49.164;9.060;2022-09-12T05:17:28;13.20;99.90
30379;DHT22;17168;49.164;9.060;2022-09-12T05:20:00;13.20;99.90
30379;DHT22;17168;49.164;9.060;2022-09-12T05:22:32;13.10;99.90
30379;DHT22;17168;49.164;9.060;2022-09-12T05:25:05;13.00;99.90
30379;DHT22;17168;49.164;9.060;2022-09-12T05:27:37;13.10;99.90
30379;DHT22;17168;49.164;9.060;2022-09-12T05:30:09;13.00;99.90
30379;DHT22;17168;49.164;9.060;2022-09-12T05:32:41;13.00;99.90
30379;DHT22;17168;49.164;9.060;2022-09-12T05:35:13;13.10;99.90
30379;DHT22;17168;49.164;9.060;2022-09-12T05:37:44;13.10;99.90
30379;DHT22;17168;49.164;9.060;2022-09-12T05:40:17;13.10;99.90
30379;DHT22;17168;49.164;9.060;2022-09-12T05:42:49;13.10;99.90
30379;DHT22;17168;49.164;9.060;2022-09-12T05:45:21;13.10;99.90
30379;DHT22;17168;49.164;9.060;2022-09-12T05:47:52;13.10;99.90
30379;DHT22;17168;49.164;9.060;2022-09-12T05:50:24;13.10;99.90
30379;DHT22;17168;49.164;9.060;2022-09-12T05:52:56;13.10;99.90
30379;DHT22;17168;49.164;9.060;2022-09-12T05:55:29;13.20;99.90
30379;DHT22;17168;49.164;9.060;2022-09-12T05:58:01;13.20;99.90
30379;DHT22;17168;49.164;9.060;2022-09-12T06:00:33;13.20;99.90
30379;DHT22;17168;49.164;9.060;2022-09-12T06:03:05;13.20;99.90
30379;DHT22;17168;49.164;9.060;2022-09-12T06:05:37;13.30;99.90
30379;DHT22;17168;49.164;9.060;2022-09-12T06:08:08;13.30;99.90
30379;DHT22;17168;49.164;9.060;2022-09-12T06:10:41;13.30;99.90
30379;DHT22;17168;49.164;9.060;2022-09-12T06:13:13;13.30;99.90
30379;DHT22;17168;49.164;9.060;2022-09-12T06:15:45;13.40;99.90
30379;DHT22;17168;49.164;9.060;2022-09-12T06:18:17;13.40;99.90
30379;DHT22;17168;49.164;9.060;2022-09-12T06:20:49;13.40;99.90
30379;DHT22;17168;49.164;9.060;2022-09-12T06:23:21;13.50;99.90
30379;DHT22;17168;49.164;9.060;2022-09-12T06:25:54;13.50;99.90
30379;DHT22;17168;49.164;9.060;2022-09-12T06:28:26;13.50;99.90
30379;DHT22;17168;49.164;9.060;2022-09-12T06:31:02;13.60;99.90
30379;DHT22;17168;49.164;9.060;2022-09-12T06:33:37;13.60;99.90
30379;DHT22;17168;49.164;9.060;2022-09-12T06:36:11;13.70;99.90
30379;DHT22;17168;49.164;9.060;2022-09-12T06:38:43;13.70;99.90
30379;DHT22;17168;49.164;9.060;2022-09-12T06:41:18;13.70;99.90
30379;DHT22;17168;49.164;9.060;2022-09-12T06:43:50;13.80;99.90
30379;DHT22;17168;49.164;9.060;2022-09-12T06:46:22;13.80;99.90
30379;DHT22;17168;49.164;9.060;2022-09-12T06:48:55;13.90;99.90
30379;DHT22;17168;49.164;9.060;2022-09-12T06:51:27;13.90;99.90
30379;DHT22;17168;49.164;9.060;2022-09-12T06:53:59;14.00;99.90
30379;DHT22;17168;49.164;9.060;2022-09-12T06:56:32;14.10;99.90
30379;DHT22;17168;49.164;9.060;2022-09-12T06:59:04;14.10;99.90
30379;DHT22;17168;49.164;9.060;2022-09-12T07:01:37;14.20;99.90
30379;DHT22;17168;49.164;9.060;2022-09-12T07:04:10;14.20;99.90
30379;DHT22;17168;49.164;9.060;2022-09-12T07:06:42;14.30;99.90
30379;DHT22;17168;49.164;9.060;2022-09-12T07:09:15;14.30;99.90
30379;DHT22;17168;49.164;9.060;2022-09-12T07:11:48;14.40;99.90
30379;DHT22;17168;49.164;9.060;2022-09-12T07:14:20;14.40;99.90
30379;DHT22;17168;49.164;9.060;2022-09-12T07:16:52;14.50;99.90
30379;DHT22;17168;49.164;9.060;2022-09-12T07:19:24;14.50;99.90
30379;DHT22;17168;49.164;9.060;2022-09-12T07:21:56;14.60;99.90
30379;DHT22;17168;49.164;9.060;2022-09-12T07:24:29;14.60;99.90
30379;DHT22;17168;49.164;9.060;2022-09-12T07:27:02;14.70;99.90
30379;DHT22;17168;49.164;9.060;2022-09-12T07:29:34;14.80;99.90
30379;DHT22;17168;49.164;9.060;2022-09-12T07:32:08;14.80;99.90
30379;DHT22;17168;49.164;9.060;2022-09-12T07:34:40;14.90;99.90
30379;DHT22;17168;49.164;9.060;2022-09-12T07:37:12;15.00;99.90
30379;DHT22;17168;49.164;9.060;2022-09-12T07:59:07;15.50;99.90
30379;DHT22;17168;49.164;9.060;2022-09-12T08:01:39;15.60;99.90
30379;DHT22;17168;49.164;9.060;2022-09-12T08:04:12;15.60;99.90
30379;DHT22;17168;49.164;9.060;2022-09-12T08:06:44;15.70;99.90
30379;DHT22;17168;49.164;9.060;2022-09-12T08:09:15;15.80;99.90
30379;DHT22;17168;49.164;9.060;2022-09-12T08:11:48;15.80;99.90
30379;DHT22;17168;49.164;9.060;2022-09-12T08:14:21;15.90;99.90
30379;DHT22;17168;49.164;9.060;2022-09-12T08:16:53;16.00;99.90
30379;DHT22;17168;49.164;9.060;2022-09-12T08:19:24;16.00;99.90
30379;DHT22;17168;49.164;9.060;2022-09-12T08:21:56;16.10;99.90
30379;DHT22;17168;49.164;9.060;2022-09-12T08:24:28;16.10;99.90
30379;DHT22;17168;49.164;9.060;2022-09-12T08:27:00;16.20;99.90
30379;DHT22;17168;49.164;9.060;2022-09-12T08:29:33;16.30;99.90
30379;DHT22;17168;49.164;9.060;2022-09-12T08:32:05;16.30;99.90
30379;DHT22;17168;49.164;9.060;2022-09-12T08:34:37;16.40;99.90
30379;DHT22;17168;49.164;9.060;2022-09-12T08:37:09;16.50;99.90
30379;DHT22;17168;49.164;9.060;2022-09-12T08:39:40;16.50;99.90
30379;DHT22;17168;49.164;9.060;2022-09-12T08:42:20;16.60;99.90
30379;DHT22;17168;49.164;9.060;2022-09-12T08:45:07;16.70;99.90
30379;DHT22;17168;49.164;9.060;2022-09-12T08:47:42;16.70;99.90
30379;DHT22;17168;49.164;9.060;2022-09-12T08:50:17;16.80;99.90
30379;DHT22;17168;49.164;9.060;2022-09-12T08:52:53;16.90;99.90
30379;DHT22;17168;49.164;9.060;2022-09-12T08:55:31;17.00;99.90
30379;DHT22;17168;49.164;9.060;2022-09-12T08:58:11;17.10;99.90
30379;DHT22;17168;49.164;9.060;2022-09-12T09:00:50;17.10;99.90
30379;DHT22;17168;49.164;9.060;2022-09-12T09:03:44;17.30;99.90
30379;DHT22;17168;49.164;9.060;2022-09-12T09:06:34;17.40;99.90
30379;DHT22;17168;49.164;9.060;2022-09-12T09:09:14;17.50;99.90
30379;DHT22;17168;49.164;9.060;2022-09-12T09:12:02;17.60;99.90
30379;DHT22;17168;49.164;9.060;2022-09-12T09:15:02;17.70;99.90
30379;DHT22;17168;49.164;9.060;2022-09-12T09:17:43;17.80;99.90
30379;DHT22;17168;49.164;9.060;2022-09-12T09:20:23;17.90;99.90
30379;DHT22;17168;49.164;9.060;2022-09-12T09:23:02;18.00;99.90
30379;DHT22;17168;49.164;9.060;2022-09-12T09:25:41;18.10;99.90
30379;DHT22;17168;49.164;9.060;2022-09-12T09:28:16;18.20;99.90
30379;DHT22;17168;49.164;9.060;2022-09-12T09:30:51;18.30;99.90
30379;DHT22;17168;49.164;9.060;2022-09-12T09:33:27;18.40;99.90
30379;DHT22;17168;49.164;9.060;2022-09-12T09:36:08;18.60;99.90
30379;DHT22;17168;49.164;9.060;2022-09-12T09:38:48;18.70;99.90
30379;DHT22;17168;49.164;9.060;2022-09-12T09:41:37;18.80;99.90
30379;DHT22;17168;49.164;9.060;2022-09-12T09:44:12;18.90;99.90
30379;DHT22;17168;49.164;9.060;2022-09-12T09:46:52;19.00;99.90
30379;DHT22;17168;49.164;9.060;2022-09-12T09:49:28;19.10;99.90
30379;DHT22;17168;49.164;9.060;2022-09-12T09:52:02;19.20;99.90
30379;DHT22;17168;49.164;9.060;2022-09-12T09:54:37;19.30;99.90
30379;DHT22;17168;49.164;9.060;2022-09-12T09:57:42;19.40;99.90
30379;DHT22;17168;49.164;9.060;2022-09-12T10:00:27;19.50;99.90
30379;DHT22;17168;49.164;9.060;2022-09-12T10:03:20;19.60;99.90
30379;DHT22;17168;49.164;9.060;2022-09-12T10:05:58;19.80;99.90
30379;DHT22;17168;49.164;9.060;2022-09-12T10:08:32;19.80;99.90
30379;DHT22;17168;49.164;9.060;2022-09-12T10:11:15;20.00;99.90
30379;DHT22;17168;49.164;9.060;2022-09-12T10:13:53;20.10;99.90
30379;DHT22;17168;49.164;9.060;2022-09-12T10:16:29;20.20;99.90
30379;DHT22;17168;49.164;9.060;2022-09-12T10:19:02;20.30;99.50
30379;DHT22;17168;49.164;9.060;2022-09-12T10:21:40;20.40;98.90
30379;DHT22;17168;49.164;9.060;2022-09-12T10:24:21;20.50;98.30
30379;DHT22;17168;49.164;9.060;2022-09-12T10:26:56;20.70;97.70
30379;DHT22;17168;49.164;9.060;2022-09-12T10:29:31;20.70;97.20
30379;DHT22;17168;49.164;9.060;2022-09-12T10:32:06;20.90;96.70
30379;DHT22;17168;49.164;9.060;2022-09-12T10:34:42;21.00;96.20
30379;DHT22;17168;49.164;9.060;2022-09-12T10:37:23;21.10;95.60
30379;DHT22;17168;49.164;9.060;2022-09-12T10:39:57;21.20;95.00
30379;DHT22;17168;49.164;9.060;2022-09-12T10:42:45;21.30;94.50
30379;DHT22;17168;49.164;9.060;2022-09-12T10:45:20;21.40;94.00
30379;DHT22;17168;49.164;9.060;2022-09-12T10:47:54;21.60;93.50
30379;DHT22;17168;49.164;9.060;2022-09-12T10:50:29;21.70;92.90
30379;DHT22;17168;49.164;9.060;2022-09-12T10:53:17;21.80;92.40
30379;DHT22;17168;49.164;9.060;2022-09-12T10:56:00;21.90;91.70
30379;DHT22;17168;49.164;9.060;2022-09-12T10:58:35;22.00;91.00
30379;DHT22;17168;49.164;9.060;2022-09-12T11:01:18;22.00;91.40
30379;DHT22;17168;49.164;9.060;2022-09-12T11:04:04;22.10;91.10
30379;DHT22;17168;49.164;9.060;2022-09-12T11:06:57;22.20;90.50
30379;DHT22;17168;49.164;9.060;2022-09-12T11:09:40;22.30;90.00
30379;DHT22;17168;49.164;9.060;2022-09-12T11:12:21;22.40;89.20
30379;DHT22;17168;49.164;9.060;2022-09-12T11:15:06;22.60;88.00
30379;DHT22;17168;49.164;9.060;2022-09-12T11:17:48;22.70;86.80
30379;DHT22;17168;49.164;9.060;2022-09-12T11:20:34;22.80;85.30
30379;DHT22;17168;49.164;9.060;2022-09-12T11:26:37;23.00;83.50
30379;DHT22;17168;49.164;9.060;2022-09-12T11:29:18;23.00;83.30
30379;DHT22;17168;49.164;9.060;2022-09-12T11:35:02;23.30;81.20
30379;DHT22;17168;49.164;9.060;2022-09-12T11:38:06;23.40;81.20
30379;DHT22;17168;49.164;9.060;2022-09-12T11:40:44;23.50;80.70
30379;DHT22;17168;49.164;9.060;2022-09-12T11:43:27;23.80;80.90
30379;DHT22;17168;49.164;9.060;2022-09-12T11:46:05;24.20;80.50
30379;DHT22;17168;49.164;9.060;2022-09-12T11:48:45;24.70;80.00
30379;DHT22;17168;49.164;9.060;2022-09-12T11:51:23;25.30;78.70
30379;DHT22;17168;49.164;9.060;2022-09-12T11:54:05;26.00;77.50
30379;DHT22;17168;49.164;9.060;2022-09-12T11:56:43;26.60;75.60
30379;DHT22;17168;49.164;9.060;2022-09-12T11:59:28;27.30;74.10
30379;DHT22;17168;49.164;9.060;2022-09-12T12:02:01;28.10;71.40
30379;DHT22;17168;49.164;9.060;2022-09-12T12:04:38;28.80;69.40
30379;DHT22;17168;49.164;9.060;2022-09-12T12:07:11;29.60;67.20
30379;DHT22;17168;49.164;9.060;2022-09-12T12:09:46;30.40;65.40
30379;DHT22;17168;49.164;9.060;2022-09-12T12:12:22;31.10;62.60
30379;DHT22;17168;49.164;9.060;2022-09-12T12:14:57;31.80;61.00
30379;DHT22;17168;49.164;9.060;2022-09-12T12:17:30;32.40;59.50
30379;DHT22;17168;49.164;9.060;2022-09-12T12:20:04;32.90;58.30
30379;DHT22;17168;49.164;9.060;2022-09-12T12:22:50;33.50;56.50
30379;DHT22;17168;49.164;9.060;2022-09-12T12:25:23;34.00;55.20
30379;DHT22;17168;49.164;9.060;2022-09-12T12:28:01;34.40;57.00
30379;DHT22;17168;49.164;9.060;2022-09-12T12:31:01;34.90;54.60
30379;DHT22;17168;49.164;9.060;2022-09-12T12:33:54;35.30;53.30
30379;DHT22;17168;49.164;9.060;2022-09-12T12:36:35;35.80;52.00
30379;DHT22;17168;49.164;9.060;2022-09-12T12:46:09;36.80;48.50
30379;DHT22;17168;49.164;9.060;2022-09-12T12:48:53;37.10;47.80
30379;DHT22;17168;49.164;9.060;2022-09-12T12:51:46;37.40;46.90
30379;DHT22;17168;49.164;9.060;2022-09-12T12:54:47;37.70;46.00
30379;DHT22;17168;49.164;9.060;2022-09-12T12:57:30;37.90;45.50
30379;DHT22;17168;49.164;9.060;2022-09-12T13:00:05;38.20;44.70
30379;DHT22;17168;49.164;9.060;2022-09-12T13:02:48;38.30;43.90
30379;DHT22;17168;49.164;9.060;2022-09-12T13:05:24;38.50;42.50
30379;DHT22;17168;49.164;9.060;2022-09-12T13:07:59;38.60;42.10
30379;DHT22;17168;49.164;9.060;2022-09-12T13:10:33;38.50;41.80
30379;DHT22;17168;49.164;9.060;2022-09-12T13:13:06;38.50;41.60
30379;DHT22;17168;49.164;9.060;2022-09-12T13:15:50;38.60;41.20
30379;DHT22;17168;49.164;9.060;2022-09-12T13:18:27;38.70;40.50
30379;DHT22;17168;49.164;9.060;2022-09-12T13:21:08;38.90;40.30
30379;DHT22;17168;49.164;9.060;2022-09-12T13:23:40;39.10;40.30
30379;DHT22;17168;49.164;9.060;2022-09-12T13:26:23;39.40;40.10
30379;DHT22;17168;49.164;9.060;2022-09-12T13:29:11;39.50;39.40
30379;DHT22;17168;49.164;9.060;2022-09-12T13:31:48;39.80;39.30
30379;DHT22;17168;49.164;9.060;2022-09-12T13:34:24;39.90;39.00
30379;DHT22;17168;49.164;9.060;2022-09-12T13:37:16;40.10;38.60
30379;DHT22;17168;49.164;9.060;2022-09-12T13:39:56;40.30;38.10
30379;DHT22;17168;49.164;9.060;2022-09-12T13:42:37;40.50;37.80
30379;DHT22;17168;49.164;9.060;2022-09-12T13:45:13;40.50;37.30
30379;DHT22;17168;49.164;9.060;2022-09-12T13:47:47;40.50;36.80
30379;DHT22;17168;49.164;9.060;2022-09-12T13:50:23;40.40;36.70
30379;DHT22;17168;49.164;9.060;2022-09-12T13:52:57;40.30;36.20
30379;DHT22;17168;49.164;9.060;2022-09-12T13:55:31;40.20;36.30
30379;DHT22;17168;49.164;9.060;2022-09-12T13:58:05;40.20;36.00
30379;DHT22;17168;49.164;9.060;2022-09-12T14:00:37;40.20;36.00
30379;DHT22;17168;49.164;9.060;2022-09-12T14:03:25;40.30;35.80
30379;DHT22;17168;49.164;9.060;2022-09-12T14:06:17;40.20;35.80
30379;DHT22;17168;49.164;9.060;2022-09-12T14:08:49;39.90;34.80
30379;DHT22;17168;49.164;9.060;2022-09-12T14:11:26;39.80;34.90
30379;DHT22;17168;49.164;9.060;2022-09-12T14:14:01;39.70;34.50
30379;DHT22;17168;49.164;9.060;2022-09-12T14:16:37;39.50;34.00
30379;DHT22;17168;49.164;9.060;2022-09-12T14:19:11;39.20;33.60
30379;DHT22;17168;49.164;9.060;2022-09-12T14:21:44;38.80;33.20
30379;DHT22;17168;49.164;9.060;2022-09-12T14:24:16;38.50;33.70
30379;DHT22;17168;49.164;9.060;2022-09-12T14:26:49;38.00;33.20
30379;DHT22;17168;49.164;9.060;2022-09-12T14:29:21;37.50;33.10
30379;DHT22;17168;49.164;9.060;2022-09-12T14:32:03;37.10;33.10
30379;DHT22;17168;49.164;9.060;2022-09-12T14:34:36;36.70;33.20
30379;DHT22;17168;49.164;9.060;2022-09-12T14:37:11;36.40;33.30
30379;DHT22;17168;49.164;9.060;2022-09-12T14:39:43;36.30;33.50
30379;DHT22;17168;49.164;9.060;2022-09-12T14:42:20;36.30;33.50
30379;DHT22;17168;49.164;9.060;2022-09-12T14:44:55;36.40;33.50
30379;DHT22;17168;49.164;9.060;2022-09-12T14:47:34;36.40;33.60
30379;DHT22;17168;49.164;9.060;2022-09-12T14:50:15;36.40;33.70
30379;DHT22;17168;49.164;9.060;2022-09-12T14:53:02;36.30;33.90
30379;DHT22;17168;49.164;9.060;2022-09-12T14:55:41;36.20;34.00
30379;DHT22;17168;49.164;9.060;2022-09-12T14:58:15;36.00;33.80
30379;DHT22;17168;49.164;9.060;2022-09-12T15:00:55;35.70;33.90
30379;DHT22;17168;49.164;9.060;2022-09-12T15:03:30;35.60;33.90
30379;DHT22;17168;49.164;9.060;2022-09-12T15:06:03;35.50;34.20
30379;DHT22;17168;49.164;9.060;2022-09-12T15:08:37;35.40;34.20
30379;DHT22;17168;49.164;9.060;2022-09-12T15:11:09;35.30;34.30
30379;DHT22;17168;49.164;9.060;2022-09-12T15:13:41;35.20;34.20
30379;DHT22;17168;49.164;9.060;2022-09-12T15:16:13;35.00;34.20
30379;DHT22;17168;49.164;9.060;2022-09-12T15:18:45;34.80;34.10
30379;DHT22;17168;49.164;9.060;2022-09-12T15:21:18;34.50;34.10
30379;DHT22;17168;49.164;9.060;2022-09-12T15:23:52;34.30;34.00
30379;DHT22;17168;49.164;9.060;2022-09-12T15:26:26;34.10;34.30
30379;DHT22;17168;49.164;9.060;2022-09-12T15:29:01;33.80;34.40
30379;DHT22;17168;49.164;9.060;2022-09-12T15:31:33;33.60;34.60
30379;DHT22;17168;49.164;9.060;2022-09-12T15:34:05;33.40;34.70
30379;DHT22;17168;49.164;9.060;2022-09-12T15:36:37;33.20;34.80
30379;DHT22;17168;49.164;9.060;2022-09-12T15:39:10;33.10;35.00
30379;DHT22;17168;49.164;9.060;2022-09-12T15:41:42;32.90;35.10
30379;DHT22;17168;49.164;9.060;2022-09-12T15:44:14;32.90;35.20
30379;DHT22;17168;49.164;9.060;2022-09-12T15:46:46;32.90;35.30
30379;DHT22;17168;49.164;9.060;2022-09-12T15:49:18;32.80;35.00
30379;DHT22;17168;49.164;9.060;2022-09-12T15:51:50;32.70;35.00
30379;DHT22;17168;49.164;9.060;2022-09-12T15:54:23;32.60;34.90
30379;DHT22;17168;49.164;9.060;2022-09-12T15:56:54;32.50;35.00
30379;DHT22;17168;49.164;9.060;2022-09-12T15:59:26;32.40;35.20
30379;DHT22;17168;49.164;9.060;2022-09-12T16:01:58;32.30;35.30
30379;DHT22;17168;49.164;9.060;2022-09-12T16:04:30;32.20;35.30
30379;DHT22;17168;49.164;9.060;2022-09-12T16:07:02;32.10;35.50
30379;DHT22;17168;49.164;9.060;2022-09-12T16:09:36;32.00;35.70
30379;DHT22;17168;49.164;9.060;2022-09-12T16:12:08;31.90;35.70
30379;DHT22;17168;49.164;9.060;2022-09-12T16:14:40;31.70;35.70
30379;DHT22;17168;49.164;9.060;2022-09-12T16:17:12;31.60;35.80
30379;DHT22;17168;49.164;9.060;2022-09-12T16:19:44;31.50;35.90
30379;DHT22;17168;49.164;9.060;2022-09-12T16:22:16;31.40;36.00
30379;DHT22;17168;49.164;9.060;2022-09-12T16:24:49;31.20;36.00
30379;DHT22;17168;49.164;9.060;2022-09-12T16:27:21;31.10;36.10
30379;DHT22;17168;49.164;9.060;2022-09-12T16:29:52;31.00;36.20
30379;DHT22;17168;49.164;9.060;2022-09-12T16:32:24;30.80;36.20
30379;DHT22;17168;49.164;9.060;2022-09-12T16:34:56;30.70;36.30
30379;DHT22;17168;49.164;9.060;2022-09-12T16:37:28;30.60;36.50
30379;DHT22;17168;49.164;9.060;2022-09-12T16:40:03;30.50;36.70
30379;DHT22;17168;49.164;9.060;2022-09-12T16:42:35;30.40;36.80
30379;DHT22;17168;49.164;9.060;2022-09-12T16:45:12;30.30;37.10
30379;DHT22;17168;49.164;9.060;2022-09-12T16:47:44;30.20;37.20
30379;DHT22;17168;49.164;9.060;2022-09-12T16:50:16;30.00;37.30
30379;DHT22;17168;49.164;9.060;2022-09-12T16:52:48;29.90;37.60
30379;DHT22;17168;49.164;9.060;2022-09-12T16:55:21;29.80;37.90
30379;DHT22;17168;49.164;9.060;2022-09-12T16:57:53;29.70;38.30
30379;DHT22;17168;49.164;9.060;2022-09-12T17:00:25;29.60;38.60
30379;DHT22;17168;49.164;9.060;2022-09-12T17:02:57;29.50;39.00